Time;durP1;ratioP1;P1;durP2;ratioP2;P2;SDS_P1;SDS_P2;PMS_P1;PMS_P2;Temp;Humidity;BMP_temperature;BMP_pressure;BME280_temperature;BME280_humidity;BME280_pressure;Samples;Min_cycle;Max_cycle;Signal;HPM_P1;HPM_P2
2022/08/13 03:40:24;;;;;;;;;;;;;;;11.38;100.00;99578.91;6243333;23;20330;-93
2022/08/13 03:43:37;;;;;;;;;;;;;;;11.34;100.00;99577.31;6243734;23;19922;-94
2022/08/13 03:59:50;;;;;;;;;;;;;;;11.25;100.00;99578.66;6209047;23;19923;-92
2022/08/13 04:08:35;;;;;;;;;;;;;;;11.41;100.00;99578.75;6236769;22;19951;-93
2022/08/13 05:03:37;;;;;;;;;;;;;;;11.27;100.00;99582.06;6228209;23;21294;-95
2022/08/13 05:09:32;;;;;;;;;;;;;;;11.21;100.00;99583.22;6162382;23;19920;-93
2022/08/13 05:12:17;;;;;;;;;;;;;;;;;;;;;
2022/08/13 05:23:47;;;;;;;;;;;;;;;11.19;100.00;99594.84;6193528;22;19927;-94
2022/08/13 05:32:48;;;;;;;;;;;;;;;;;;;;;
2022/08/13 05:35:25;;;;;;;;;;;;;;;11.34;100.00;99599.41;6122328;23;19999;-94
2022/08/13 05:38:12;;;;;;;;;;;;;;;11.18;100.00;99603.75;6214187;23;20312;-94
2022/08/13 05:41:24;;;;;;;;;;;;;;;11.18;100.00;99609.03;6214261;23;19938;-93
2022/08/13 05:44:25;;;;;;;;;;;;;;;;;;;;;
2022/08/13 05:46:57;;;;;;;;;;;;;;;11.24;100.00;99600.78;6124655;23;19988;-94
2022/08/13 05:50:11;;;;;;;;;;;;;;;;;;;;;
2022/08/13 05:53:05;;;;;;;;;;;;;;;11.26;100.00;99607.75;6193506;23;19916;-94
2022/08/13 06:33:01;;;;;;;;;;;;;;;11.16;100.00;99595.00;6223051;22;19955;-93
2022/08/13 06:36:36;;;;;;;;;;;;;;;;;;;;;
2022/08/13 06:39:04;;;;;;;;;;;;;;;;;;;;;
2022/08/13 06:42:00;;;;;;;;;;;;;;;11.21;100.00;99592.97;6235466;22;19998;-93
2022/08/13 06:47:54;;;;;;;;;;;;;;;;;;;;;
2022/08/13 06:54:13;;;;;;;;;;;;;;;;;;;;;
2022/08/13 07:00:07;;;;;;;;;;;;;;;;;;;;;
2022/08/13 07:12:59;;;;;;;;;;;;;;;;;;;;;
2022/08/13 07:30:24;;;;;;;;;;;;;;;;;;;;;
2022/08/13 07:32:47;;;;;;;;;;;;;;;11.16;100.00;99587.06;6173530;23;19926;-93
2022/08/13 07:38:19;;;;;;;;;;;;;;;11.29;100.00;99588.16;6234051;23;20235;-90
2022/08/13 07:40:51;;;;;;;;;;;;;;;11.33;100.00;99578.25;6243957;23;19938;-91
2022/08/13 07:43:43;;;;;;;;;;;;;;;11.23;100.00;99585.81;6216982;23;19916;-92
2022/08/13 07:46:12;;;;;;;;;;;;;;;11.19;100.00;99592.22;6243902;23;19916;-93
2022/08/13 07:48:50;;;;;;;;;;;;;;;11.24;100.00;99584.88;6239811;23;19939;-92
2022/08/13 07:51:28;;;;;;;;;;;;;;;11.27;100.00;99582.94;6242501;23;19970;-90
2022/08/13 07:56:42;;;;;;;;;;;;;;;11.15;100.00;99586.16;6223981;22;20336;-93
2022/08/13 08:09:23;;;;;;;;;;;;;;;;;;;;;
2022/08/13 08:29:28;;;;;;;;;;;;;;;;;;;;;
2022/08/13 08:42:54;;;;;;;;;;;;;;;11.49;100.00;99578.34;6247757;23;19918;-95
2022/08/13 08:45:40;;;;;;;;;;;;;;;11.47;100.00;99583.72;6245087;23;19912;-94
2022/08/13 08:48:53;;;;;;;;;;;;;;;;;;;;;
2022/08/13 08:51:22;;;;;;;;;;;;;;;11.34;100.00;99572.88;6167439;22;20006;-95
2022/08/13 08:54:06;;;;;;;;;;;;;;;;;;;;;
2022/08/13 08:56:48;;;;;;;;;;;;;;;;;;;;;
2022/08/13 08:59:15;;;;;;;;;;;;;;;11.38;100.00;99565.66;6246651;23;19990;-90
2022/08/13 09:01:55;;;;;;;;;;;;;;;11.40;100.00;99575.22;6246830;23;19916;-92
2022/08/13 09:05:05;;;;;;;;;;;;;;;11.54;100.00;99571.03;6218805;23;19907;-92
2022/08/13 09:10:24;;;;;;;;;;;;;;;;;;;;;
2022/08/13 09:22:30;;;;;;;;;;;;;;;;;;;;;
2022/08/13 09:25:03;;;;;;;;;;;;;;;11.73;100.00;99563.84;6125089;23;19980;-91
2022/08/13 09:27:38;;;;;;;;;;;;;;;11.66;100.00;99557.13;6153373;23;19948;-93
2022/08/13 09:30:16;;;;;;;;;;;;;;;11.50;100.00;99557.03;6183984;23;20359;-94
2022/08/13 09:33:03;;;;;;;;;;;;;;;;;;;;;
2022/08/13 09:35:36;;;;;;;;;;;;;;;11.56;100.00;99555.91;6245365;23;19986;-93
2022/08/13 09:38:32;;;;;;;;;;;;;;;;;;;;;
2022/08/13 10:08:27;;;;;;;;;;;;;;;11.52;100.00;99535.75;6182680;23;20415;-90
2022/08/13 10:19:54;;;;;;;;;;;;;;;11.61;100.00;99528.16;6173221;23;19922;-94
2022/08/13 10:22:43;;;;;;;;;;;;;;;11.59;100.00;99534.50;6151627;23;20043;-93
2022/08/13 10:31:09;;;;;;;;;;;;;;;11.60;100.00;99509.72;6228217;22;19926;-92
2022/08/13 11:00:21;;;;;;;;;;;;;;;11.63;100.00;99488.28;6235865;22;20006;-91
2022/08/13 11:03:16;;;;;;;;;;;;;;;;;;;;;
2022/08/13 11:05:53;;;;;;;;;;;;;;;11.57;100.00;99475.38;6244505;23;20029;-93
2022/08/13 11:08:59;;;;;;;;;;;;;;;11.62;100.00;99479.47;6245704;23;19919;-93
2022/08/13 11:11:58;;;;;;;;;;;;;;;;;;;;;
2022/08/13 11:15:09;;;;;;;;;;;;;;;;;;;;;
2022/08/13 11:18:10;;;;;;;;;;;;;;;;;;;;;
2022/08/13 11:26:18;;;;;;;;;;;;;;;;;;;;;
2022/08/13 11:37:59;;;;;;;;;;;;;;;11.57;100.00;99457.63;6183312;23;19922;-96
2022/08/13 11:40:57;;;;;;;;;;;;;;;;;;;;;
2022/08/13 12:01:28;;;;;;;;;;;;;;;;;;;;;
2022/08/13 12:04:20;;;;;;;;;;;;;;;11.53;100.00;99450.75;6245692;23;20279;-92
2022/08/13 12:27:01;;;;;;;;;;;;;;;11.62;100.00;99433.53;6121245;23;20421;-91
2022/08/13 12:30:08;;;;;;;;;;;;;;;;;;;;;
2022/08/13 12:46:49;;;;;;;;;;;;;;;11.44;100.00;99408.81;6222821;23;19938;-91
2022/08/13 12:49:20;;;;;;;;;;;;;;;11.37;100.00;99420.66;6206704;23;19912;-90
2022/08/13 12:55:13;;;;;;;;;;;;;;;11.73;100.00;99414.38;6230523;23;19918;-92
2022/08/13 13:00:54;;;;;;;;;;;;;;;11.54;100.00;99406.53;6243358;22;19919;-92
2022/08/13 13:03:32;;;;;;;;;;;;;;;11.58;100.00;99410.72;6216508;23;19916;-90
2022/08/13 13:06:03;;;;;;;;;;;;;;;11.47;100.00;99402.47;6243430;23;19915;-89
2022/08/13 13:08:31;;;;;;;;;;;;;;;11.59;100.00;99402.69;6244977;23;20437;-90
2022/08/13 13:11:21;;;;;;;;;;;;;;;11.48;100.00;99386.47;6245822;23;19912;-90
2022/08/13 13:13:49;;;;;;;;;;;;;;;11.51;100.00;99390.78;6244702;23;20259;-91
2022/08/13 13:16:30;;;;;;;;;;;;;;;11.57;100.00;99382.50;6245014;23;19995;-91
2022/08/13 13:19:07;;;;;;;;;;;;;;;11.60;100.00;99377.03;6244723;23;19919;-92
2022/08/13 13:25:09;;;;;;;;;;;;;;;;;;;;;
2022/08/13 13:27:50;;;;;;;;;;;;;;;11.60;100.00;99377.03;6246424;23;19998;-91
2022/08/13 13:30:27;;;;;;;;;;;;;;;11.61;100.00;99381.38;6245339;23;19912;-93
2022/08/13 13:32:56;;;;;;;;;;;;;;;11.90;100.00;99374.50;6244664;23;19915;-91
2022/08/13 13:35:43;;;;;;;;;;;;;;;;;;;;;
2022/08/13 13:39:06;;;;;;;;;;;;;;;;;;;;;
2022/08/13 14:11:43;;;;;;;;;;;;;;;11.62;100.00;99343.28;6141072;23;19929;-95
2022/08/13 14:17:36;;;;;;;;;;;;;;;;;;;;;
2022/08/13 14:22:54;;;;;;;;;;;;;;;11.69;100.00;99336.69;6212327;23;19919;-93
2022/08/13 14:25:36;;;;;;;;;;;;;;;11.64;100.00;99331.63;6176945;23;19916;-92
2022/08/13 14:28:18;;;;;;;;;;;;;;;;;;;;;
2022/08/13 14:30:56;;;;;;;;;;;;;;;11.69;100.00;99311.97;6216121;23;19999;-94
2022/08/13 14:33:40;;;;;;;;;;;;;;;11.68;100.00;99318.22;6189190;23;20400;-93
2022/08/13 14:36:34;;;;;;;;;;;;;;;11.63;100.00;99326.41;6213664;23;19958;-92
2022/08/13 14:39:41;;;;;;;;;;;;;;;;;;;;;
2022/08/13 14:41:58;;;;;;;;;;;;;;;11.65;100.00;99316.59;6210359;23;19912;-93
2022/08/13 14:44:35;;;;;;;;;;;;;;;11.69;100.00;99318.13;6187410;23;19912;-93
2022/08/13 14:47:08;;;;;;;;;;;;;;;11.84;100.00;99320.88;6188370;23;19915;-92
2022/08/13 14:49:38;;;;;;;;;;;;;;;12.35;100.00;99321.56;6185940;23;19955;-92
2022/08/13 14:52:04;;;;;;;;;;;;;;;11.72;100.00;99306.50;6215936;23;19935;-93
2022/08/13 14:54:45;;;;;;;;;;;;;;;11.71;100.00;99304.78;6189029;23;19922;-95
2022/08/13 15:00:55;;;;;;;;;;;;;;;11.62;100.00;99298.19;6091306;23;19940;-95
2022/08/13 15:03:42;;;;;;;;;;;;;;;11.53;100.00;99290.72;6153288;23;19916;-89
2022/08/13 15:06:07;;;;;;;;;;;;;;;11.59;100.00;99295.69;6185392;23;19954;-92
2022/08/13 15:11:45;;;;;;;;;;;;;;;11.57;100.00;99279.00;6155353;23;19912;-94
2022/08/13 15:14:33;;;;;;;;;;;;;;;11.51;100.00;99287.31;6190240;23;19919;-94
2022/08/13 15:17:01;;;;;;;;;;;;;;;11.44;100.00;99286.78;6190355;23;20013;-96
2022/08/13 15:19:50;;;;;;;;;;;;;;;11.44;100.00;99286.78;6188838;23;20209;-94
2022/08/13 15:22:20;;;;;;;;;;;;;;;11.61;100.00;99286.69;6212757;23;19974;-94
2022/08/13 15:24:46;;;;;;;;;;;;;;;11.60;100.00;99284.16;6188379;23;19923;-92
2022/08/13 15:30:20;;;;;;;;;;;;;;;11.43;100.00;99264.69;6202485;23;19912;-92
2022/08/13 15:32:53;;;;;;;;;;;;;;;11.47;100.00;99269.84;6187994;23;19916;-91
2022/08/13 15:35:20;;;;;;;;;;;;;;;11.58;100.00;99267.44;6188815;23;19923;-94
2022/08/13 15:37:48;;;;;;;;;;;;;;;11.49;100.00;99265.28;6190123;23;19939;-93
2022/08/13 15:40:25;;;;;;;;;;;;;;;11.45;100.00;99257.53;6215135;23;20381;-93
2022/08/13 15:46:02;;;;;;;;;;;;;;;11.51;100.00;99250.16;6193979;23;19918;-92
2022/08/13 15:48:30;;;;;;;;;;;;;;;11.53;100.00;99245.63;6188519;23;20096;-94
2022/08/13 15:50:56;;;;;;;;;;;;;;;11.37;100.00;99238.50;6187801;23;19992;-91
2022/08/13 15:53:26;;;;;;;;;;;;;;;11.38;100.00;99240.22;6188407;23;19908;-90
2022/08/13 15:55:52;;;;;;;;;;;;;;;11.56;100.00;99240.16;6188432;23;19998;-93
2022/08/13 16:01:21;;;;;;;;;;;;;;;11.49;100.00;99241.41;6213362;23;20008;-92
2022/08/13 16:06:40;;;;;;;;;;;;;;;11.34;100.00;99237.81;6213482;23;20328;-91
2022/08/13 16:11:45;;;;;;;;;;;;;;;11.35;100.00;99235.09;6245043;23;19927;-92
2022/08/13 16:14:11;;;;;;;;;;;;;;;11.25;100.00;99231.22;6218298;23;19911;-92
2022/08/13 16:16:36;;;;;;;;;;;;;;;11.40;100.00;99233.03;6218594;23;20334;-92
2022/08/13 16:19:02;;;;;;;;;;;;;;;11.42;100.00;99231.16;6219460;23;19911;-90
2022/08/13 16:21:59;;;;;;;;;;;;;;;11.35;100.00;99219.16;6218545;23;19911;-89
2022/08/13 16:24:25;;;;;;;;;;;;;;;11.36;100.00;99218.25;6245872;23;19962;-92
2022/08/13 16:27:03;;;;;;;;;;;;;;;11.47;100.00;99219.44;6220398;23;19916;-89
2022/08/13 16:29:36;;;;;;;;;;;;;;;11.56;100.00;99213.63;6219878;23;19998;-92
2022/08/13 16:32:06;;;;;;;;;;;;;;;11.41;100.00;99208.22;6219119;23;19987;-91
2022/08/13 16:34:43;;;;;;;;;;;;;;;11.32;100.00;99206.06;6218643;23;19943;-92
2022/08/13 16:37:14;;;;;;;;;;;;;;;11.52;100.00;99198.78;6220094;23;19920;-90
2022/08/13 16:39:40;;;;;;;;;;;;;;;11.51;100.00;99202.41;6220221;23;19919;-91
2022/08/13 16:42:15;;;;;;;;;;;;;;;11.45;100.00;99195.63;6247224;23;19915;-92
2022/08/13 16:49:59;;;;;;;;;;;;;;;11.59;100.00;99194.88;6211183;23;19966;-93
2022/08/13 16:52:24;;;;;;;;;;;;;;;11.42;100.00;99194.03;6188836;23;20327;-92
2022/08/13 16:54:56;;;;;;;;;;;;;;;11.38;100.00;99181.88;6217353;23;19912;-91
2022/08/13 16:57:24;;;;;;;;;;;;;;;11.51;100.00;99186.50;6215306;23;19983;-93
2022/08/13 16:59:49;;;;;;;;;;;;;;;11.46;100.00;99178.78;6188209;23;19915;-92
2022/08/13 17:02:22;;;;;;;;;;;;;;;11.35;100.00;99182.03;6188202;23;19916;-92
2022/08/13 17:10:31;;;;;;;;;;;;;;;11.57;100.00;99180.84;6134774;23;20000;-93
2022/08/13 17:12:56;;;;;;;;;;;;;;;11.40;100.00;99184.44;6188324;23;20274;-95
2022/08/13 17:15:25;;;;;;;;;;;;;;;11.42;100.00;99183.41;6214942;23;19939;-93
2022/08/13 17:17:53;;;;;;;;;;;;;;;11.62;100.00;99179.63;6189200;23;19919;-92
2022/08/13 17:20:34;;;;;;;;;;;;;;;11.42;100.00;99179.88;6188119;23;19959;-96
2022/08/13 17:23:35;;;;;;;;;;;;;;;11.39;100.00;99183.59;6187838;23;19916;-93
2022/08/13 17:26:02;;;;;;;;;;;;;;;11.32;100.00;99182.19;6180091;23;20312;-94
2022/08/13 17:28:32;;;;;;;;;;;;;;;11.48;100.00;99184.00;6188185;23;19962;-91
2022/08/13 17:31:00;;;;;;;;;;;;;;;11.39;100.00;99178.28;6187242;23;19936;-93
2022/08/13 17:33:28;;;;;;;;;;;;;;;11.23;100.00;99177.41;6189002;23;19951;-93
2022/08/13 17:35:54;;;;;;;;;;;;;;;11.33;100.00;99172.44;6187265;23;20252;-94
2022/08/13 17:38:20;;;;;;;;;;;;;;;11.42;100.00;99183.41;6187385;23;19912;-96
2022/08/13 17:40:50;;;;;;;;;;;;;;;11.27;100.00;99185.09;6189031;23;19915;-94
2022/08/13 17:43:17;;;;;;;;;;;;;;;11.29;100.00;99179.72;6213609;23;19994;-94
2022/08/13 17:45:42;;;;;;;;;;;;;;;11.40;100.00;99185.28;6188050;23;19916;-93
2022/08/13 17:48:24;;;;;;;;;;;;;;;11.33;100.00;99178.63;5622916;23;15763305;-93
2022/08/13 17:50:55;;;;;;;;;;;;;;;11.19;100.00;99187.31;6187207;23;19923;-93
2022/08/13 17:54:08;;;;;;;;;;;;;;;11.28;100.00;99178.03;6190183;23;19919;-93
2022/08/13 17:56:55;;;;;;;;;;;;;;;11.32;100.00;99176.06;6214158;23;19966;-92
2022/08/13 18:02:08;;;;;;;;;;;;;;;11.31;100.00;99183.13;6214595;23;19919;-91
2022/08/13 18:04:33;;;;;;;;;;;;;;;11.16;100.00;99184.00;6188098;23;19916;-92
2022/08/13 18:07:30;;;;;;;;;;;;;;;11.24;100.00;99190.56;6190041;23;20379;-91
2022/08/13 18:10:23;;;;;;;;;;;;;;;11.33;100.00;99191.88;6086974;23;19927;-92
2022/08/13 18:12:51;;;;;;;;;;;;;;;11.34;100.00;99193.56;6185353;23;19916;-93
2022/08/13 18:15:27;;;;;;;;;;;;;;;11.23;100.00;99193.31;6189455;23;20002;-93
2022/08/13 18:17:58;;;;;;;;;;;;;;;11.18;100.00;99192.72;6216292;23;19912;-91
2022/08/13 18:20:27;;;;;;;;;;;;;;;11.30;100.00;99194.69;6214894;23;19985;-90
2022/08/13 18:22:55;;;;;;;;;;;;;;;11.30;100.00;99204.47;6189325;23;19977;-92
2022/08/13 18:28:19;;;;;;;;;;;;;;;11.23;100.00;99201.28;6210820;23;19919;-91
2022/08/13 18:30:47;;;;;;;;;;;;;;;11.29;100.00;99197.44;6188207;23;20232;-93
2022/08/13 18:33:14;;;;;;;;;;;;;;;11.24;100.00;99192.38;6215527;23;20393;-91
2022/08/13 18:35:42;;;;;;;;;;;;;;;11.14;100.00;99205.28;6187511;23;19970;-92
2022/08/13 18:38:13;;;;;;;;;;;;;;;11.21;100.00;99201.34;6215751;23;19916;-89
2022/08/13 18:40:41;;;;;;;;;;;;;;;11.34;100.00;99201.53;6200070;23;19919;-92
2022/08/13 18:43:06;;;;;;;;;;;;;;;11.27;100.00;99205.47;6244269;23;19911;-93
2022/08/13 18:45:31;;;;;;;;;;;;;;;11.18;100.00;99204.16;6219954;23;19957;-93
2022/08/13 18:48:07;;;;;;;;;;;;;;;;;;;;;
2022/08/13 18:50:32;;;;;;;;;;;;;;;11.29;100.00;99208.88;6244533;23;19998;-91
2022/08/13 18:52:58;;;;;;;;;;;;;;;11.16;100.00;99213.16;6219149;23;19949;-91
2022/08/13 18:55:24;;;;;;;;;;;;;;;11.29;100.00;99208.03;6209429;23;19951;-91
2022/08/13 18:57:53;;;;;;;;;;;;;;;11.36;100.00;99212.94;6215584;23;19966;-90
2022/08/13 19:00:21;;;;;;;;;;;;;;;11.29;100.00;99214.19;6188238;23;19923;-89
2022/08/13 19:05:58;;;;;;;;;;;;;;;11.28;100.00;99217.81;6211516;23;19924;-89
2022/08/13 19:08:24;;;;;;;;;;;;;;;11.35;100.00;99223.63;6215123;23;19935;-91
2022/08/13 19:13:24;;;;;;;;;;;;;;;11.17;100.00;99226.34;6213259;23;19962;-91
2022/08/13 19:15:49;;;;;;;;;;;;;;;11.38;100.00;99229.63;6188597;23;19916;-92
2022/08/13 19:18:17;;;;;;;;;;;;;;;11.28;100.00;99228.41;6188712;23;19937;-91
2022/08/13 19:20:45;;;;;;;;;;;;;;;11.19;100.00;99229.75;6184963;23;19912;-91
2022/08/13 19:23:12;;;;;;;;;;;;;;;11.31;100.00;99230.88;6185904;23;19916;-93
2022/08/13 19:25:41;;;;;;;;;;;;;;;11.40;100.00;99237.47;6185634;23;19923;-92
2022/08/13 19:28:06;;;;;;;;;;;;;;;11.26;100.00;99235.56;6210435;23;19974;-91
2022/08/13 19:30:35;;;;;;;;;;;;;;;11.26;100.00;99241.75;6188586;23;19911;-88
2022/08/13 19:33:02;;;;;;;;;;;;;;;11.41;100.00;99241.84;6188947;23;19994;-94
2022/08/13 19:35:28;;;;;;;;;;;;;;;11.33;100.00;99241.41;6214126;23;19919;-93
2022/08/13 19:37:58;;;;;;;;;;;;;;;11.19;100.00;99248.31;6189763;23;20231;-94
2022/08/13 19:40:25;;;;;;;;;;;;;;;11.30;100.00;99239.78;6215571;23;19923;-90
2022/08/13 19:46:00;;;;;;;;;;;;;;;11.29;100.00;99246.03;6214459;23;19926;-93
2022/08/13 19:48:26;;;;;;;;;;;;;;;11.20;100.00;99249.16;6216323;23;19923;-94
2022/08/13 19:50:52;;;;;;;;;;;;;;;11.27;100.00;99240.81;6188698;23;19927;-94
2022/08/13 19:53:30;;;;;;;;;;;;;;;11.37;100.00;99238.50;6188662;23;19919;-92
2022/08/13 19:55:58;;;;;;;;;;;;;;;11.24;100.00;99248.06;6216658;23;19907;-91
2022/08/13 19:58:25;;;;;;;;;;;;;;;11.19;100.00;99247.47;6191827;23;19912;-91
2022/08/13 20:00:50;;;;;;;;;;;;;;;11.36;100.00;99246.53;6191886;23;20332;-90
2022/08/13 20:06:07;;;;;;;;;;;;;;;11.23;100.00;99247.22;6210852;23;19912;-89
2022/08/13 20:08:33;;;;;;;;;;;;;;;11.32;100.00;99253.81;6191169;23;20283;-92
2022/08/13 20:11:00;;;;;;;;;;;;;;;11.45;100.00;99257.53;6218335;23;19946;-91
2022/08/13 20:13:25;;;;;;;;;;;;;;;11.33;100.00;99255.53;6218406;23;19912;-92
2022/08/13 20:15:51;;;;;;;;;;;;;;;11.23;100.00;99255.19;6218351;23;19985;-91
2022/08/13 20:18:16;;;;;;;;;;;;;;;11.43;100.00;99253.22;6218359;23;19919;-91
2022/08/13 20:20:41;;;;;;;;;;;;;;;11.36;100.00;99250.06;6216293;23;19916;-89
2022/08/13 20:23:11;;;;;;;;;;;;;;;11.19;100.00;99255.44;6215208;23;19912;-90
2022/08/13 20:25:36;;;;;;;;;;;;;;;11.33;100.00;99252.88;6217913;23;19982;-93
2022/08/13 20:28:05;;;;;;;;;;;;;;;11.39;100.00;99252.56;6218551;23;19915;-92
2022/08/13 20:30:32;;;;;;;;;;;;;;;11.25;100.00;99252.44;6217650;23;19916;-91
2022/08/13 20:32:57;;;;;;;;;;;;;;;11.34;100.00;99249.28;6217275;23;19919;-91
2022/08/13 20:35:22;;;;;;;;;;;;;;;11.46;100.00;99247.75;6217195;23;20342;-91
2022/08/13 20:37:49;;;;;;;;;;;;;;;11.33;100.00;99250.22;6192259;23;20324;-90
2022/08/13 20:40:16;;;;;;;;;;;;;;;11.31;100.00;99249.44;6191629;23;19920;-90
2022/08/13 20:42:44;;;;;;;;;;;;;;;11.48;100.00;99250.34;6217563;23;19939;-92
2022/08/13 20:45:11;;;;;;;;;;;;;;;11.37;100.00;99251.75;6191095;23;19959;-93
2022/08/13 20:47:37;;;;;;;;;;;;;;;11.29;100.00;99246.03;6189600;23;19923;-89
2022/08/13 20:50:05;;;;;;;;;;;;;;;11.43;100.00;99243.47;6187733;23;19912;-92
2022/08/13 20:52:30;;;;;;;;;;;;;;;11.52;100.00;99243.91;6217362;23;19912;-91
2022/08/13 20:54:56;;;;;;;;;;;;;;;11.31;100.00;99246.78;6215518;23;19916;-91
2022/08/13 20:57:22;;;;;;;;;;;;;;;11.37;100.00;99246.44;6216147;23;19983;-90
2022/08/13 20:59:49;;;;;;;;;;;;;;;11.56;100.00;99245.44;6190654;23;19981;-92
2022/08/13 21:02:14;;;;;;;;;;;;;;;11.40;100.00;99259.56;6218763;23;19924;-93
2022/08/13 21:04:43;;;;;;;;;;;;;;;11.43;100.00;99264.69;6191379;23;20413;-92
2022/08/13 21:07:08;;;;;;;;;;;;;;;11.58;100.00;99259.47;6189501;23;20215;-92
2022/08/13 21:09:33;;;;;;;;;;;;;;;11.41;100.00;99263.94;6216487;23;19969;-92
2022/08/13 21:11:59;;;;;;;;;;;;;;;11.34;100.00;99259.03;6190611;23;20331;-91
2022/08/13 21:14:24;;;;;;;;;;;;;;;11.59;100.00;99251.44;6216800;23;19962;-91
2022/08/13 21:16:49;;;;;;;;;;;;;;;11.51;100.00;99247.50;6216463;23;19919;-93
2022/08/13 21:19:16;;;;;;;;;;;;;;;11.45;100.00;99251.34;6189405;23;19916;-93
2022/08/13 21:21:41;;;;;;;;;;;;;;;11.58;100.00;99248.88;6189649;23;19916;-91
2022/08/13 21:24:08;;;;;;;;;;;;;;;11.57;100.00;99247.19;6216538;23;20010;-94
2022/08/13 21:26:33;;;;;;;;;;;;;;;11.45;100.00;99249.56;6216542;23;20381;-93
2022/08/13 21:28:58;;;;;;;;;;;;;;;11.62;100.00;99248.63;6216957;23;19981;-91
2022/08/13 21:31:24;;;;;;;;;;;;;;;11.58;100.00;99246.22;6215880;23;19916;-93
2022/08/13 21:33:49;;;;;;;;;;;;;;;11.49;100.00;99249.38;6188952;23;19947;-91
2022/08/13 21:36:15;;;;;;;;;;;;;;;11.66;100.00;99251.09;6214184;23;19919;-91
2022/08/13 21:38:40;;;;;;;;;;;;;;;11.66;100.00;99240.47;6189404;23;20317;-91
2022/08/13 21:41:05;;;;;;;;;;;;;;;11.54;100.00;99247.34;6189076;23;19955;-92
2022/08/13 21:43:30;;;;;;;;;;;;;;;11.67;100.00;99237.75;6189668;23;19954;-93
2022/08/13 21:45:58;;;;;;;;;;;;;;;11.65;100.00;99234.34;6188768;23;20065;-91
2022/08/13 21:48:41;;;;;;;;;;;;;;;11.59;100.00;99232.03;6189303;23;20438;-92
2022/08/13 21:51:07;;;;;;;;;;;;;;;11.60;100.00;99223.97;6214561;23;19947;-92
2022/08/13 21:53:32;;;;;;;;;;;;;;;11.72;100.00;99222.41;6188647;23;19994;-92
2022/08/13 21:55:57;;;;;;;;;;;;;;;11.60;100.00;99212.50;6188547;23;20382;-91
2022/08/13 21:58:23;;;;;;;;;;;;;;;11.52;100.00;99204.09;6214683;23;19919;-93
2022/08/13 22:00:48;;;;;;;;;;;;;;;11.75;100.00;99208.13;6189252;23;19993;-91
2022/08/13 22:03:13;;;;;;;;;;;;;;;11.65;100.00;99205.16;6186937;23;19923;-89
2022/08/13 22:05:39;;;;;;;;;;;;;;;11.56;100.00;99206.50;6213147;23;19912;-91
2022/08/13 22:08:08;;;;;;;;;;;;;;;11.74;100.00;99198.44;6187589;23;19915;-91
2022/08/13 22:10:37;;;;;;;;;;;;;;;11.69;100.00;99200.50;6187167;23;20263;-91
2022/08/13 22:13:10;;;;;;;;;;;;;;;11.58;100.00;99187.84;6213059;23;19969;-91
2022/08/13 22:15:38;;;;;;;;;;;;;;;11.67;100.00;99195.28;6187243;23;20397;-88
2022/08/13 22:18:05;;;;;;;;;;;;;;;11.78;100.00;99192.88;6212913;23;19913;-91
2022/08/13 22:20:30;;;;;;;;;;;;;;;11.65;100.00;99191.88;6213084;23;19916;-90
2022/08/13 22:22:55;;;;;;;;;;;;;;;11.60;100.00;99196.59;6188734;23;19912;-90
2022/08/13 22:25:21;;;;;;;;;;;;;;;11.73;100.00;99189.63;6216025;23;19916;-91
2022/08/13 22:27:49;;;;;;;;;;;;;;;11.63;100.00;99185.78;6215418;23;19940;-92
2022/08/13 22:33:12;;;;;;;;;;;;;;;11.60;100.00;99193.94;6215122;23;19974;-91
2022/08/13 22:35:38;;;;;;;;;;;;;;;11.72;100.00;99195.88;6187098;23;19983;-92
2022/08/13 22:38:03;;;;;;;;;;;;;;;11.59;100.00;99189.56;6187451;23;19942;-91
2022/08/13 22:40:28;;;;;;;;;;;;;;;11.63;100.00;99191.09;6187705;23;19951;-90
2022/08/13 22:42:54;;;;;;;;;;;;;;;11.75;100.00;99184.25;6189172;23;19920;-94
2022/08/13 22:45:25;;;;;;;;;;;;;;;11.61;100.00;99188.50;6183911;23;19916;-92
2022/08/13 22:47:51;;;;;;;;;;;;;;;11.55;100.00;99196.84;6186539;23;19912;-93
2022/08/13 22:50:16;;;;;;;;;;;;;;;11.72;100.00;99201.19;6158725;23;19920;-91
2022/08/13 22:52:41;;;;;;;;;;;;;;;11.60;100.00;99193.94;6185826;23;19943;-95
2022/08/13 22:55:07;;;;;;;;;;;;;;;11.54;100.00;99199.59;6160450;23;19983;-96
2022/08/13 22:57:32;;;;;;;;;;;;;;;11.76;100.00;99194.78;6183799;23;19916;-93
2022/08/13 22:59:57;;;;;;;;;;;;;;;11.66;100.00;99190.91;6158836;23;19913;-93
2022/08/13 23:02:23;;;;;;;;;;;;;;;11.55;100.00;99201.28;6159772;23;19916;-91
2022/08/13 23:04:48;;;;;;;;;;;;;;;11.61;100.00;99200.94;6183841;23;19919;-90
2022/08/13 23:07:14;;;;;;;;;;;;;;;11.74;100.00;99193.13;6157933;23;20003;-92
2022/08/13 23:09:39;;;;;;;;;;;;;;;11.56;100.00;99192.38;6159387;23;19974;-94
2022/08/13 23:12:05;;;;;;;;;;;;;;;11.49;100.00;99191.88;6183646;23;20340;-93
2022/08/13 23:14:31;;;;;;;;;;;;;;;11.64;100.00;99187.50;6158217;23;19944;-87
2022/08/13 23:16:56;;;;;;;;;;;;;;;11.57;100.00;99192.31;6184800;23;19947;-93
2022/08/13 23:19:22;;;;;;;;;;;;;;;11.52;100.00;99189.06;6159261;23;19919;-92
2022/08/13 23:21:47;;;;;;;;;;;;;;;11.59;100.00;99182.44;6185184;23;20444;-94
2022/08/13 23:24:14;;;;;;;;;;;;;;;11.59;100.00;99182.44;6160285;23;19912;-92
2022/08/13 23:26:40;;;;;;;;;;;;;;;11.51;100.00;99187.34;6159966;23;20334;-94
2022/08/13 23:29:05;;;;;;;;;;;;;;;11.51;100.00;99183.84;6159584;23;19995;-95
2022/08/13 23:31:30;;;;;;;;;;;;;;;11.64;100.00;99177.72;6162140;23;20000;-90
